Gunilla — SERW — position and weather

sailwx.info

Track history (hours):
 
Tides and Currents Weather Stations Pressure Air Temp Water Temp Dewpoint Dewpoint Depression Visibility Wind Speed Wind Dir Waves Ship Positions

Gunilla (Sweden)

Ship's website: http://www.gunilla.nu/engelsk/frameset_english.htm

Last reported at 2020-Sep-23 01:55 UTC. Time now 2020-Sep-23 04:19 UTC.
Position N 49°52' W 001°23'.

Length 49.4 m; beam 8.4 m; draft 2.7 m.

Type: Sailing vessel. MMSI: 265318000.

Date/timePositionNaut miles runAvg speedWind from/ knotsBaromVisibWave heightAir tempDewpointWater temp
2020-Sep-23 01:55N 49°52' W 001°23'52 5.5
2020-Sep-22 16:26N 50°21' W 000°16'3 7.7
2020-Sep-22 16:00N 50°23' W 000°12'4 7.2
2020-Sep-22 15:30N 50°25' W 000°07'18 5.3
2020-Sep-22 12:00N 50°33' E 000°19'4 3.9
2020-Sep-22 11:00N 50°35' E 000°24'5 5.1
2020-Sep-22 10:00N 50°38' E 000°31'3 6.0
2020-Sep-22 09:30N 50°39' E 000°35'10 6.9
2020-Sep-22 07:59N 50°44' E 000°50'4 7.2
2020-Sep-22 07:29N 50°47' E 000°54'3 7.0
2020-Sep-22 07:00N 50°48' E 000°59'13 6.3
2020-Sep-22 05:00N 50°57' E 001°14'5 4.8
2020-Sep-22 04:00N 50°60' E 001°20'2 3.9
2020-Sep-22 03:30N 51°01' E 001°22'25 5.6
2020-Sep-21 23:00N 51°20' E 001°50'9 8.5
2020-Sep-21 22:00N 51°27' E 001°57'4 7.9
2020-Sep-21 21:30N 51°30' E 002°00'7 7.3
2020-Sep-21 20:30N 51°36' E 002°07'18 5.9
2020-Sep-21 17:30N 51°49' E 002°26'7 4.9
2020-Sep-21 16:00N 51°55' E 002°35'12 5.9
2020-Sep-21 14:00N 52°03' E 002°48'29 8.3
2020-Sep-21 10:30N 52°26' E 003°17'15 7.6
2020-Sep-21 08:30N 52°38' E 003°32'6 6.4
2020-Sep-21 07:30N 52°43' E 003°39'11 5.5
2020-Sep-21 05:30N 52°51' E 003°50'23 5.3
2020-Sep-21 01:08N 53°07' E 004°18'5 6.2
2020-Sep-21 00:23N 53°11' E 004°23'6 6.7
2020-Sep-20 23:26N 53°16' E 004°29'24 6.1
2020-Sep-20 19:30N 53°32' E 004°59'2 4.6
2020-Sep-20 19:00N 53°33' E 005°03'5 4.6
2020-Sep-20 18:00N 53°36' E 005°09'3 6.3
2020-Sep-20 17:29N 53°38' E 005°13'3 6.5
2020-Sep-20 17:00N 53°41' E 005°16'4 6.7
2020-Sep-20 16:23N 53°42' E 005°22'3 7.8
2020-Sep-20 16:00N 53°43' E 005°27'11 7.5
2020-Sep-20 14:30N 53°46' E 005°46'11 5.3
2020-Sep-20 12:30N 53°50' E 006°02'89 5.1
2020-Sep-19 19:00N 53°58' E 008°33'14 9.1
2020-Sep-19 17:29N 53°51' E 008°52'10 8.7
2020-Sep-19 16:23N 53°53' E 009°08'35 6.6
2020-Sep-19 11:00N 54°21' E 009°46'8 7.7
2020-Sep-19 10:00N 54°21' E 009°59'7 2.7
2020-Sep-19 07:30N 54°22' E 010°10'0 0.7
2020-Sep-19 07:00N 54°23' E 010°10'0 0.0
2020-Sep-19 05:00N 54°23' E 010°10'0 0.0
2020-Sep-19 04:30N 54°23' E 010°10'0 0.1
2020-Sep-19 02:31N 54°22' E 010°10'3 3.2
2020-Sep-19 01:31N 54°25' E 010°13'8 4.2
2020-Sep-18 23:30N 54°32' E 010°22'4 4.2
2020-Sep-18 22:30N 54°33' E 010°29'10 4.2
2020-Sep-18 20:01N 54°35' E 010°47'4 4.3
2020-Sep-18 19:00N 54°35' E 010°54'6 5.8
2020-Sep-18 18:01N 54°35' E 011°04'18 6.0
2020-Sep-18 15:00N 54°19' E 011°18'5 3.4
2020-Sep-18 13:30N 54°14' E 011°15'18 5.9
2020-Sep-18 10:30N 53°60' E 010°57'12 0.2
2020-Sep-16 06:42N 53°52' E 010°41'0 0.0
2020-Sep-15 02:00N 53°52' E 010°41'6 0.3
2020-Sep-14 09:48N 53°54' E 010°50'14 4.2
2020-Sep-14 06:30N 54°04' E 011°07'5 5.1
2020-Sep-14 05:30N 54°06' E 011°14'3 5.3
2020-Sep-14 05:00N 54°08' E 011°18'5 5.2
2020-Sep-14 04:00N 54°10' E 011°26'3 5.1
2020-Sep-14 03:30N 54°11' E 011°30'2 4.6
2020-Sep-14 03:00N 54°12' E 011°34'2 4.4
2020-Sep-14 02:30N 54°13' E 011°37'7 4.7
2020-Sep-14 01:00N 54°16' E 011°48'13 5.0
2020-Sep-13 22:28N 54°21' E 012°08'6 5.8
2020-Sep-13 21:28N 54°24' E 012°16'73 3.7
2020-Sep-13 02:00N 55°35' E 012°50'  
Track history (hours):
 
Tides and Currents Weather Stations Pressure Air Temp Water Temp Dewpoint Dewpoint Depression Visibility Wind Speed Wind Dir Waves Ship Positions

Gunilla (Sweden)

Ship's website: http://www.gunilla.nu/engelsk/frameset_english.htm

Last reported at 2020-Sep-23 01:55 UTC. Time now 2020-Sep-23 04:19 UTC.
Position N 49°52' W 001°23'.

Length 49.4 m; beam 8.4 m; draft 2.7 m.

Type: Sailing vessel. MMSI: 265318000.

Date/timePositionNaut miles runAvg speedWind from/ knotsBaromVisibWave heightAir tempDewpointWater temp
2020-Sep-23 01:55N 49°52' W 001°23'52 5.5
2020-Sep-22 16:26N 50°21' W 000°16'3 7.7
2020-Sep-22 16:00N 50°23' W 000°12'4 7.2
2020-Sep-22 15:30N 50°25' W 000°07'18 5.3
2020-Sep-22 12:00N 50°33' E 000°19'4 3.9
2020-Sep-22 11:00N 50°35' E 000°24'5 5.1
2020-Sep-22 10:00N 50°38' E 000°31'3 6.0
2020-Sep-22 09:30N 50°39' E 000°35'10 6.9
2020-Sep-22 07:59N 50°44' E 000°50'4 7.2
2020-Sep-22 07:29N 50°47' E 000°54'3 7.0
2020-Sep-22 07:00N 50°48' E 000°59'13 6.3
2020-Sep-22 05:00N 50°57' E 001°14'5 4.8
2020-Sep-22 04:00N 50°60' E 001°20'2 3.9
2020-Sep-22 03:30N 51°01' E 001°22'25 5.6
2020-Sep-21 23:00N 51°20' E 001°50'9 8.5
2020-Sep-21 22:00N 51°27' E 001°57'4 7.9
2020-Sep-21 21:30N 51°30' E 002°00'7 7.3
2020-Sep-21 20:30N 51°36' E 002°07'18 5.9
2020-Sep-21 17:30N 51°49' E 002°26'7 4.9
2020-Sep-21 16:00N 51°55' E 002°35'12 5.9
2020-Sep-21 14:00N 52°03' E 002°48'29 8.3
2020-Sep-21 10:30N 52°26' E 003°17'15 7.6
2020-Sep-21 08:30N 52°38' E 003°32'6 6.4
2020-Sep-21 07:30N 52°43' E 003°39'11 5.5
2020-Sep-21 05:30N 52°51' E 003°50'23 5.3
2020-Sep-21 01:08N 53°07' E 004°18'5 6.2
2020-Sep-21 00:23N 53°11' E 004°23'6 6.7
2020-Sep-20 23:26N 53°16' E 004°29'24 6.1
2020-Sep-20 19:30N 53°32' E 004°59'2 4.6
2020-Sep-20 19:00N 53°33' E 005°03'5 4.6
2020-Sep-20 18:00N 53°36' E 005°09'3 6.3
2020-Sep-20 17:29N 53°38' E 005°13'3 6.5
2020-Sep-20 17:00N 53°41' E 005°16'4 6.7
2020-Sep-20 16:23N 53°42' E 005°22'3 7.8
2020-Sep-20 16:00N 53°43' E 005°27'11 7.5
2020-Sep-20 14:30N 53°46' E 005°46'11 5.3
2020-Sep-20 12:30N 53°50' E 006°02'89 5.1
2020-Sep-19 19:00N 53°58' E 008°33'14 9.1
2020-Sep-19 17:29N 53°51' E 008°52'10 8.7
2020-Sep-19 16:23N 53°53' E 009°08'35 6.6
2020-Sep-19 11:00N 54°21' E 009°46'8 7.7
2020-Sep-19 10:00N 54°21' E 009°59'7 2.7
2020-Sep-19 07:30N 54°22' E 010°10'0 0.7
2020-Sep-19 07:00N 54°23' E 010°10'0 0.0
2020-Sep-19 05:00N 54°23' E 010°10'0 0.0
2020-Sep-19 04:30N 54°23' E 010°10'0 0.1
2020-Sep-19 02:31N 54°22' E 010°10'3 3.2
2020-Sep-19 01:31N 54°25' E 010°13'8 4.2
2020-Sep-18 23:30N 54°32' E 010°22'4 4.2
2020-Sep-18 22:30N 54°33' E 010°29'10 4.2
2020-Sep-18 20:01N 54°35' E 010°47'4 4.3
2020-Sep-18 19:00N 54°35' E 010°54'6 5.8
2020-Sep-18 18:01N 54°35' E 011°04'18 6.0
2020-Sep-18 15:00N 54°19' E 011°18'5 3.4
2020-Sep-18 13:30N 54°14' E 011°15'18 5.9
2020-Sep-18 10:30N 53°60' E 010°57'12 0.2
2020-Sep-16 06:42N 53°52' E 010°41'0 0.0
2020-Sep-15 02:00N 53°52' E 010°41'6 0.3
2020-Sep-14 09:48N 53°54' E 010°50'14 4.2
2020-Sep-14 06:30N 54°04' E 011°07'5 5.1
2020-Sep-14 05:30N 54°06' E 011°14'3 5.3
2020-Sep-14 05:00N 54°08' E 011°18'5 5.2
2020-Sep-14 04:00N 54°10' E 011°26'3 5.1
2020-Sep-14 03:30N 54°11' E 011°30'2 4.6
2020-Sep-14 03:00N 54°12' E 011°34'2 4.4
2020-Sep-14 02:30N 54°13' E 011°37'7 4.7
2020-Sep-14 01:00N 54°16' E 011°48'13 5.0
2020-Sep-13 22:28N 54°21' E 012°08'6 5.8
2020-Sep-13 21:28N 54°24' E 012°16'73 3.7
2020-Sep-13 02:00N 55°35' E 012°50'  

Dump ship's entire track history